Time;durP1;ratioP1;P1;durP2;ratioP2;P2;SDS_P1;SDS_P2;PMS_P1;PMS_P2;Temp;Humidity;BMP_temperature;BMP_pressure;BME280_temperature;BME280_humidity;BME280_pressure;Samples;Min_cycle;Max_cycle;Signal;HPM_P1;HPM_P2
2021/12/12 00:01:07;;;;;;;92.38;39.45;;;;;;;-144.19;100.00;78323.63;4994182;28;20060;-84
2021/12/12 00:03:41;;;;;;;91.28;40.25;;;;;;;-144.19;100.00;78296.03;4994140;28;20424;-85
2021/12/12 00:06:14;;;;;;;90.32;38.38;;;;;;;-144.19;100.00;78280.28;4993502;28;20089;-85
2021/12/12 00:08:44;;;;;;;100.80;40.35;;;;;;;-144.19;100.00;78278.31;4994409;28;20054;-88
2021/12/12 00:11:15;;;;;;;89.30;40.80;;;;;;;-144.19;100.00;78284.22;4994160;28;20061;-87
2021/12/12 00:13:46;;;;;;;95.32;41.55;;;;;;;-144.19;100.00;78274.38;4995304;28;20444;-87
2021/12/12 00:16:13;;;;;;;83.78;37.30;;;;;;;-144.19;100.00;78274.38;4993567;28;20047;-86
2021/12/12 00:18:41;;;;;;;79.93;40.22;;;;;;;-144.19;100.00;78270.44;4993982;28;20061;-89
2021/12/12 00:21:10;;;;;;;84.28;39.22;;;;;;;-144.19;100.00;78268.47;4994041;28;20054;-87
2021/12/12 00:23:37;;;;;;;89.80;38.20;;;;;;;-144.19;100.00;78260.59;4994250;28;20050;-86
2021/12/12 00:26:05;;;;;;;92.15;38.45;;;;;;;-144.19;100.00;78258.63;4993966;28;20057;-85
2021/12/12 00:28:31;;;;;;;72.13;37.28;;;;;;;-144.19;100.00;78244.84;4995128;28;20054;-85
2021/12/12 00:31:08;;;;;;;89.30;37.85;;;;;;;-144.19;100.00;78252.72;4993791;28;20058;-87
2021/12/12 00:33:40;;;;;;;72.17;36.37;;;;;;;-144.19;100.00;78238.94;4993784;28;20057;-85
2021/12/12 00:36:08;;;;;;;76.63;34.53;;;;;;;-144.19;100.00;78244.84;4994210;28;20084;-86
2021/12/12 00:38:36;;;;;;;79.35;36.75;;;;;;;-144.19;100.00;78233.03;4994850;28;20061;-84
2021/12/12 00:41:07;;;;;;;65.75;33.05;;;;;;;-144.19;100.00;78233.03;4993080;28;20057;-85
2021/12/12 00:43:39;;;;;;;73.57;34.53;;;;;;;-144.19;100.00;78225.16;4993496;28;20428;-85
2021/12/12 00:46:09;;;;;;;74.78;35.60;;;;;;;-144.19;100.00;78211.38;4992733;28;20046;-85
2021/12/12 00:48:38;;;;;;;77.18;35.72;;;;;;;-144.19;100.00;78213.34;4993692;28;20064;-86
2021/12/12 00:51:06;;;;;;;69.03;34.03;;;;;;;-144.19;100.00;78215.31;4992628;28;20050;-88
2021/12/12 00:53:34;;;;;;;72.40;33.38;;;;;;;-144.19;100.00;78205.47;4994733;28;20066;-85
2021/12/12 00:56:04;;;;;;;66.45;32.08;;;;;;;-144.19;100.00;78205.47;4993175;28;20047;-88
2021/12/12 00:58:31;;;;;;;68.43;31.65;;;;;;;-144.19;100.00;78201.53;4994392;28;20056;-85
2021/12/12 01:01:21;;;;;;;66.30;32.17;;;;;;;-144.19;100.00;78195.63;4992990;28;20401;-86
2021/12/12 01:03:55;;;;;;;62.53;32.20;;;;;;;-144.19;100.00;78193.66;4993156;28;20134;-86
2021/12/12 01:06:23;;;;;;;65.13;31.55;;;;;;;-144.19;100.00;78181.84;4992296;28;20042;-86
2021/12/12 01:08:52;;;;;;;67.60;32.75;;;;;;;-144.19;99.95;78185.78;4992370;28;20057;-85
2021/12/12 01:11:31;;;;;;;63.85;31.77;;;;;;;-144.19;99.67;78181.84;5022285;22;20050;-88
2021/12/12 01:14:01;;;;;;;64.95;32.22;;;;;;;-144.19;99.49;78183.81;5015708;28;20051;-87
2021/12/12 01:16:34;;;;;;;70.05;32.88;;;;;;;-144.19;99.47;78168.03;5015159;28;20052;-88
2021/12/12 01:19:08;;;;;;;59.67;31.13;;;;;;;-144.19;99.26;78189.72;5015812;28;20053;-88
2021/12/12 01:21:39;;;;;;;61.85;28.45;;;;;;;-144.19;98.75;78173.94;5015570;28;20049;-88
2021/12/12 01:24:09;;;;;;;54.40;28.35;;;;;;;-144.19;98.44;78183.81;5015683;28;20056;-88
2021/12/12 01:26:38;;;;;;;65.57;28.48;;;;;;;-144.19;99.05;78185.78;5032021;28;20073;-88
2021/12/12 01:29:06;;;;;;;67.68;31.70;;;;;;;-144.19;98.31;78177.91;5015557;28;20057;-90
2021/12/12 01:31:36;;;;;;;59.72;29.42;;;;;;;-144.19;98.33;78191.69;5015718;28;20045;-89
2021/12/12 01:34:11;;;;;;;57.10;28.17;;;;;;;-144.19;98.40;78185.78;5034281;28;20055;-89
2021/12/12 01:37:35;;;;;;;53.30;27.10;;;;;;;-144.19;98.13;78177.91;5030940;28;20055;-90
2021/12/12 01:39:39;;;;;;;53.33;27.33;;;;;;;-144.19;97.45;78181.84;5025023;28;20068;-89
2021/12/12 01:42:14;;;;;;;55.95;25.80;;;;;;;-144.19;97.81;78191.69;5030955;28;20053;-90
2021/12/12 01:44:58;;;;;;;43.97;24.20;;;;;;;-144.19;97.79;78189.72;5031952;28;20057;-89
2021/12/12 01:47:38;;;;;;;56.10;25.98;;;;;;;-144.19;97.46;78185.78;5031841;28;20053;-89
2021/12/12 01:50:10;;;;;;;60.35;26.98;;;;;;;-144.19;97.82;78185.78;5031555;28;20068;-89
2021/12/12 01:52:37;;;;;;;49.80;25.27;;;;;;;-144.19;97.55;78191.69;5043736;28;20047;-86
2021/12/12 01:55:23;;;;;;;54.45;23.95;;;;;;;-144.19;97.40;78193.66;5030771;28;20420;-90
2021/12/12 01:57:53;;;;;;;44.35;22.73;;;;;;;-144.19;97.29;78195.63;5014094;28;20056;-90
2021/12/12 02:00:31;;;;;;;43.38;21.63;;;;;;;-144.19;97.03;78197.59;5047900;28;20049;-89
2021/12/12 02:03:00;;;;;;;51.60;24.05;;;;;;;-144.19;97.05;78189.72;5014388;28;20507;-90
2021/12/12 02:05:28;;;;;;;46.22;22.90;;;;;;;-144.19;96.45;78179.88;5047901;28;20543;-90
2021/12/12 02:08:03;;;;;;;43.45;20.90;;;;;;;-144.19;96.45;78189.72;5014154;28;20072;-89
2021/12/12 02:10:35;;;;;;;45.58;21.08;;;;;;;-144.19;96.32;78189.72;5014984;28;20498;-90
2021/12/12 02:13:05;;;;;;;43.75;22.45;;;;;;;-144.19;96.18;78179.88;5013852;28;20495;-90
2021/12/12 02:15:35;;;;;;;51.33;22.67;;;;;;;-144.19;96.12;78189.72;5014213;28;20053;-90
2021/12/12 02:18:08;;;;;;;43.28;22.38;;;;;;;-144.19;96.28;78171.97;5013577;28;20049;-89
2021/12/12 02:20:42;;;;;;;42.90;20.65;;;;;;;-144.19;95.81;78181.84;5013165;28;20053;-91
2021/12/12 02:36:50;;;;;;;33.13;19.10;;;;;;;-144.19;95.30;78168.03;5030735;28;20053;-90
2021/12/12 02:39:21;;;;;;;37.95;18.63;;;;;;;-144.19;95.27;78168.03;5029832;28;20053;-90
2021/12/12 02:41:56;;;;;;;38.58;18.45;;;;;;;-144.19;95.20;78166.06;5029621;28;20060;-90
2021/12/12 02:44:28;;;;;;;36.55;17.98;;;;;;;-144.19;94.49;78170.00;5029999;28;20053;-90
2021/12/12 02:46:59;;;;;;;31.08;16.58;;;;;;;-144.19;94.27;78164.09;5029419;28;20300;-90
2021/12/12 02:52:23;;;;;;;;;;;;;;;-144.19;94.35;78160.16;5030833;28;20494;-89
2021/12/12 02:54:50;;;;;;;37.35;17.77;;;;;;;-144.19;93.79;78162.13;5027016;28;20402;-90
2021/12/12 02:57:18;;;;;;;37.13;17.88;;;;;;;-144.19;94.21;78162.13;5012697;28;20061;-91
2021/12/12 02:59:50;;;;;;;35.42;18.08;;;;;;;-144.19;94.24;78168.03;5030968;28;20424;-90
2021/12/12 03:02:26;;;;;;;34.47;16.98;;;;;;;-144.19;94.28;78154.25;5012927;28;20053;-90
2021/12/12 03:04:57;;;;;;;32.70;16.00;;;;;;;-144.19;93.31;78160.16;5013502;28;20136;-90
2021/12/12 03:07:25;;;;;;;30.77;15.43;;;;;;;-144.19;93.50;78154.25;5012628;28;20055;-91
2021/12/12 03:09:56;;;;;;;37.67;15.73;;;;;;;-144.19;93.36;78166.06;5013138;28;20045;-90
2021/12/12 03:12:33;;;;;;;30.98;15.40;;;;;;;-144.19;93.11;78152.28;5030275;28;20052;-90
2021/12/12 03:15:14;;;;;;;34.33;16.60;;;;;;;-144.19;92.53;78150.31;5013155;28;20049;-90
2021/12/12 03:17:43;;;;;;;32.85;16.35;;;;;;;-144.19;92.67;78160.16;5045361;28;20510;-90
2021/12/12 03:20:26;;;;;;;41.50;16.48;;;;;;;-144.19;92.74;78160.16;5013433;28;20049;-90
2021/12/12 03:23:03;;;;;;;31.48;14.50;;;;;;;-144.19;92.72;78158.19;5012787;28;20422;-90
2021/12/12 03:25:33;;;;;;;24.73;12.40;;;;;;;-144.19;92.14;78150.31;5029893;28;20056;-90
2021/12/12 03:27:59;;;;;;;28.45;13.68;;;;;;;-144.19;91.82;78154.25;5012336;28;20059;-90
2021/12/12 03:30:28;;;;;;;32.30;14.03;;;;;;;-144.19;91.37;78136.53;5013584;28;20058;-90
2021/12/12 03:32:54;;;;;;;27.58;13.32;;;;;;;-144.19;91.44;78146.38;5049605;28;20288;-91
2021/12/12 03:35:21;;;;;;;31.75;12.75;;;;;;;-144.19;90.97;78138.50;5024829;28;20053;-90
2021/12/12 03:37:48;;;;;;;22.40;11.68;;;;;;;-144.19;91.08;78130.63;5033729;28;20053;-90
2021/12/12 03:40:19;;;;;;;26.90;13.05;;;;;;;-144.19;90.34;78132.59;5035099;28;20099;-90
2021/12/12 03:42:48;;;;;;;24.40;11.00;;;;;;;-144.19;89.92;78132.59;5032713;28;20059;-90
2021/12/12 03:45:15;;;;;;;25.55;11.07;;;;;;;-144.19;89.71;78126.69;5034783;28;20059;-90
2021/12/12 03:47:49;;;;;;;26.55;11.60;;;;;;;-144.19;89.44;78138.50;5032614;28;20423;-90
2021/12/12 03:50:29;;;;;;;23.50;12.13;;;;;;;-144.19;89.31;78130.63;5033147;28;20064;-90
2021/12/12 03:52:56;;;;;;;29.73;11.48;;;;;;;-144.19;89.73;78134.56;5033717;28;20426;-90
2021/12/12 03:55:26;;;;;;;25.30;13.50;;;;;;;-144.19;90.47;78146.38;5025817;28;20068;-91
2021/12/12 03:57:53;;;;;;;24.83;11.07;;;;;;;-144.19;90.63;78134.56;5016153;28;20818;-91
2021/12/12 04:00:29;;;;;;;21.95;11.05;;;;;;;-144.19;91.55;78148.34;5016944;28;20045;-90
2021/12/12 04:02:58;;;;;;;26.83;12.55;;;;;;;-144.19;92.64;78158.19;5049983;28;20080;-90
2021/12/12 04:05:24;;;;;;;26.75;13.57;;;;;;;-144.19;93.10;78160.16;5049658;28;20061;-90
2021/12/12 04:07:51;;;;;;;23.80;11.77;;;;;;;-144.19;93.50;78170.00;5016411;28;20053;-90
2021/12/12 04:10:20;;;;;;;25.77;10.95;;;;;;;-144.19;94.11;78175.94;5034586;28;20057;-90
2021/12/12 04:12:48;;;;;;;26.15;10.88;;;;;;;-144.19;94.53;78173.94;5049653;28;20537;-89
2021/12/12 04:15:15;;;;;;;19.33;9.85;;;;;;;-144.19;94.71;78173.94;5017161;28;20514;-90
2021/12/12 04:17:43;;;;;;;24.70;11.20;;;;;;;-144.19;95.23;78177.91;5049336;28;20435;-89
2021/12/12 04:20:19;;;;;;;17.30;9.55;;;;;;;-144.19;95.29;78170.00;5034856;28;20055;-88
2021/12/12 04:22:46;;;;;;;24.05;10.85;;;;;;;-144.19;95.64;78171.97;5034751;28;20225;-89
2021/12/12 04:25:13;;;;;;;25.02;11.32;;;;;;;-144.19;95.96;78170.00;5015908;28;20519;-90
2021/12/12 04:27:40;;;;;;;24.77;10.18;;;;;;;-144.19;96.36;78177.91;5016737;28;20435;-89
2021/12/12 04:30:09;;;;;;;;;;;;;;;-144.19;96.29;78166.06;5017108;28;20518;-90
2021/12/12 04:32:35;;;;;;;15.88;8.93;;;;;;;-144.19;96.45;78166.06;5050135;28;19921;-89
2021/12/12 04:35:12;;;;;;;25.90;10.82;;;;;;;-144.19;96.50;78168.03;5021478;28;20060;-89
2021/12/12 04:37:39;;;;;;;27.13;10.27;;;;;;;-144.19;97.36;78168.03;5033253;28;20049;-88
2021/12/12 04:40:08;;;;;;;;;;;;;;;-144.19;97.08;78166.06;5033408;28;20060;-89
2021/12/12 04:42:37;;;;;;;20.48;9.45;;;;;;;-144.19;97.28;78166.06;5034550;28;19927;-88
2021/12/12 04:45:26;;;;;;;23.77;8.70;;;;;;;-144.19;96.80;78168.03;5033260;28;20487;-89
2021/12/12 04:50:52;;;;;;;17.27;8.77;;;;;;;-144.19;97.13;78162.13;5034409;28;19944;-89
2021/12/12 04:53:29;;;;;;;20.58;8.57;;;;;;;-144.19;97.21;78160.16;5030565;28;20527;-91
2021/12/12 04:56:03;;;;;;;20.92;8.95;;;;;;;-144.19;97.60;78146.38;5020876;28;20118;-91
2021/12/12 04:58:45;;;;;;;18.05;8.25;;;;;;;-144.19;97.63;78152.28;5024250;28;20056;-91
2021/12/12 05:01:23;;;;;;;22.52;8.68;;;;;;;-144.19;98.14;78138.50;5021216;28;20045;-91
2021/12/12 05:04:00;;;;;;;15.73;8.77;;;;;;;-144.19;98.07;78130.63;5033644;28;20057;-91
2021/12/12 05:06:36;;;;;;;19.30;9.48;;;;;;;-144.19;97.98;78134.56;5031571;28;20053;-91
2021/12/12 05:09:08;;;;;;;22.27;8.55;;;;;;;-144.19;98.13;78120.78;5033406;28;20049;-90
2021/12/12 05:12:03;;;;;;;16.02;7.88;;;;;;;-144.19;97.92;78118.81;5031383;28;20053;-90
2021/12/12 05:14:36;;;;;;;19.95;7.18;;;;;;;-144.19;98.02;78108.97;5029734;28;20084;-91
2021/12/12 05:17:11;;;;;;;17.50;7.32;;;;;;;-144.19;98.06;78091.25;5032081;28;20045;-91
2021/12/12 05:19:45;;;;;;;22.50;8.80;;;;;;;-144.19;97.52;78087.31;5033133;28;20521;-91
2021/12/12 05:22:26;;;;;;;17.25;8.50;;;;;;;-144.19;96.95;78075.50;5034009;28;20272;-92
2021/12/12 05:25:13;;;;;;;16.05;6.88;;;;;;;-144.19;97.00;78077.47;5033599;28;20049;-89
2021/12/12 05:27:42;;;;;;;13.88;6.15;;;;;;;-144.19;97.18;78077.47;5033465;28;20046;-94
2021/12/12 05:30:18;;;;;;;15.55;5.82;;;;;;;-144.19;96.89;78067.63;5032365;28;20067;-92
2021/12/12 05:32:47;;;;;;;14.15;6.65;;;;;;;-144.19;95.58;78055.81;5032131;28;20053;-90
2021/12/12 05:35:17;;;;;;;13.98;5.90;;;;;;;-144.19;95.51;78053.84;5025419;28;20132;-90
2021/12/12 05:37:48;;;;;;;11.80;6.45;;;;;;;-144.19;96.08;78045.97;5015300;28;20499;-90
2021/12/12 05:40:15;;;;;;;21.88;6.22;;;;;;;-144.19;96.06;78065.66;5033682;28;20045;-89
2021/12/12 05:42:43;;;;;;;20.77;7.20;;;;;;;-144.19;95.32;78038.09;5015706;28;20054;-91
2021/12/12 05:45:10;;;;;;;16.33;6.60;;;;;;;-144.19;95.11;78030.22;5015679;28;20071;-90
2021/12/12 05:47:37;;;;;;;13.23;7.05;;;;;;;-144.19;95.29;78036.13;5048539;28;20112;-90
2021/12/12 05:50:06;;;;;;;;;;;;;;;-144.19;95.33;78012.47;5015480;28;20080;-90
2021/12/12 05:52:32;;;;;;;21.65;6.07;;;;;;;-144.19;95.23;78016.41;5016462;28;19933;-89
2021/12/12 05:55:01;;;;;;;18.00;6.70;;;;;;;-144.19;95.16;78020.34;5015819;28;20064;-89
2021/12/12 05:57:28;;;;;;;23.25;7.13;;;;;;;-144.19;94.97;78014.44;5015513;28;20049;-90
2021/12/12 05:59:56;;;;;;;13.70;5.72;;;;;;;-144.19;95.24;78012.47;5048164;28;20050;-90
2021/12/12 06:02:25;;;;;;;17.33;6.53;;;;;;;-144.19;95.11;78012.47;5048746;28;20065;-91
2021/12/12 06:04:56;;;;;;;17.85;5.68;;;;;;;-144.19;95.24;78004.59;5015824;28;20107;-90
2021/12/12 06:07:24;;;;;;;14.52;5.57;;;;;;;-144.19;95.48;78004.59;5014798;28;20052;-90
2021/12/12 06:09:51;;;;;;;17.02;6.40;;;;;;;-144.19;95.80;78004.59;5015028;28;20451;-91
2021/12/12 06:12:18;;;;;;;21.10;6.72;;;;;;;-144.19;95.74;78000.66;5015103;28;20054;-91
2021/12/12 06:14:45;;;;;;;17.50;5.93;;;;;;;-144.19;95.45;77996.72;5014759;28;20076;-89
2021/12/12 06:17:13;;;;;;;;;;;;;;;-144.19;94.83;78000.66;5032571;28;20049;-91
2021/12/12 06:19:41;;;;;;;20.10;7.32;;;;;;;-144.19;95.55;78000.66;5015454;28;19921;-88
2021/12/12 06:22:09;;;;;;;15.10;5.47;;;;;;;-144.19;95.63;78006.56;5015049;28;20057;-90
2021/12/12 06:24:38;;;;;;;15.23;5.68;;;;;;;-144.19;95.74;78000.66;5013997;28;20056;-91
2021/12/12 06:27:09;;;;;;;18.38;5.95;;;;;;;-144.19;96.08;77994.75;5013796;28;20045;-90
2021/12/12 06:29:36;;;;;;;16.08;5.88;;;;;;;-144.19;96.60;77990.81;5046777;28;20049;-91
2021/12/12 06:32:04;;;;;;;13.85;5.28;;;;;;;-144.19;96.26;77994.75;5046493;28;20419;-91
2021/12/12 06:34:31;;;;;;;13.95;5.25;;;;;;;-144.19;96.69;78004.59;5031801;28;20053;-91
2021/12/12 06:36:57;;;;;;;14.20;6.28;;;;;;;-144.19;97.41;77996.72;5030757;28;20046;-90
2021/12/12 06:39:25;;;;;;;16.27;6.50;;;;;;;-144.19;97.51;77992.78;5030754;28;20049;-90
2021/12/12 06:41:53;;;;;;;14.38;6.07;;;;;;;-144.19;97.65;77988.84;5030476;28;20225;-91
2021/12/12 06:44:21;;;;;;;13.98;6.90;;;;;;;-144.19;97.88;77977.03;5031941;28;20056;-89
2021/12/12 06:46:47;;;;;;;14.90;6.18;;;;;;;-144.19;98.02;77992.78;5031496;28;20051;-90
2021/12/12 06:49:16;;;;;;;18.25;6.47;;;;;;;-144.19;98.44;77994.75;5031621;28;20093;-91
2021/12/12 06:51:54;;;;;;;14.75;6.78;;;;;;;-144.19;98.78;77994.75;5031424;28;20053;-90
2021/12/12 06:54:24;;;;;;;16.83;7.22;;;;;;;-144.19;98.90;78000.66;5032014;28;20057;-90
2021/12/12 06:56:53;;;;;;;19.17;7.70;;;;;;;-144.19;99.24;77996.72;5015611;28;20049;-89
2021/12/12 06:59:42;;;;;;;22.17;8.82;;;;;;;-144.19;98.92;77996.72;5040060;28;20136;-92
2021/12/12 07:02:23;;;;;;;14.95;6.78;;;;;;;-144.19;99.59;77992.78;5017719;28;20049;-90
2021/12/12 07:04:51;;;;;;;18.77;7.63;;;;;;;-144.19;99.88;78008.53;5015330;28;20052;-92
2021/12/12 07:07:17;;;;;;;18.27;8.85;;;;;;;-144.19;99.72;77996.72;5047108;28;20073;-91
2021/12/12 07:09:46;;;;;;;24.02;9.43;;;;;;;-144.19;99.74;78000.66;5015876;28;20064;-90
2021/12/12 07:12:15;;;;;;;19.67;7.78;;;;;;;-144.19;100.00;78010.50;5047927;22;20056;-86
2021/12/12 07:14:43;;;;;;;20.40;8.55;;;;;;;-144.19;100.00;78012.47;5009950;28;20053;-87
2021/12/12 07:17:10;;;;;;;23.48;9.80;;;;;;;-144.19;100.00;77996.72;5010347;28;20046;-87
2021/12/12 07:19:37;;;;;;;;;;;;;;;-144.19;100.00;78008.53;5009719;28;20062;-84
2021/12/12 07:22:04;;;;;;;19.55;10.38;;;;;;;-144.19;100.00;77996.72;5009299;28;19929;-86
2021/12/12 07:24:31;;;;;;;17.92;9.35;;;;;;;-144.19;100.00;78004.59;5008785;28;20046;-86
2021/12/12 07:27:01;;;;;;;22.20;10.25;;;;;;;-144.19;100.00;78008.53;5011087;28;20046;-86
2021/12/12 07:29:28;;;;;;;24.75;12.10;;;;;;;-144.19;100.00;78008.53;5011228;28;20400;-87
2021/12/12 07:31:56;;;;;;;23.45;12.27;;;;;;;-144.19;100.00;78000.66;5009529;28;20056;-86
2021/12/12 07:34:24;;;;;;;26.73;13.75;;;;;;;-144.19;100.00;78012.47;5011358;28;20496;-87
2021/12/12 07:36:52;;;;;;;;;;;;;;;-144.19;100.00;78008.53;5011248;28;20038;-87
2021/12/12 07:39:19;;;;;;;;;;;;;;;-144.19;100.00;77996.72;5011147;28;19921;-86
2021/12/12 07:41:48;;;;;;;18.98;11.60;;;;;;;-144.19;100.00;78020.34;5010235;28;19929;-88
2021/12/12 07:44:18;;;;;;;25.23;12.68;;;;;;;-144.19;100.00;78004.59;5010629;28;20057;-86
2021/12/12 07:46:46;;;;;;;20.33;11.57;;;;;;;-144.19;100.00;78014.44;5008328;28;20057;-86
2021/12/12 07:49:13;;;;;;;24.23;12.38;;;;;;;-144.19;100.00;78020.34;5011266;28;20050;-88
2021/12/12 07:51:41;;;;;;;27.98;14.35;;;;;;;-144.19;100.00;78014.44;5010631;28;20054;-85
2021/12/12 07:54:08;;;;;;;20.63;13.20;;;;;;;-144.19;100.00;78012.47;5010717;28;20053;-84
2021/12/12 07:56:38;;;;;;;22.13;13.63;;;;;;;-144.19;100.00;78012.47;5011048;28;20385;-88
2021/12/12 07:59:07;;;;;;;20.50;12.18;;;;;;;-144.19;100.00;78016.41;5012223;28;20054;-87
2021/12/12 08:01:35;;;;;;;26.95;13.95;;;;;;;-144.19;100.00;78004.59;5008043;28;20056;-83
2021/12/12 08:04:03;;;;;;;24.55;15.38;;;;;;;-144.19;100.00;77996.72;5010548;28;20054;-88
2021/12/12 08:06:30;;;;;;;25.67;15.07;;;;;;;-144.19;100.00;78002.63;5011013;28;20042;-84
2021/12/12 08:08:57;;;;;;;21.25;13.23;;;;;;;-144.19;100.00;78000.66;5021162;28;20049;-88
2021/12/12 08:11:28;;;;;;;30.20;16.45;;;;;;;-144.19;100.00;78000.66;5011116;28;20073;-84
2021/12/12 08:13:58;;;;;;;26.83;15.07;;;;;;;-144.19;100.00;78004.59;5008819;28;20125;-84
2021/12/12 08:16:24;;;;;;;26.02;14.27;;;;;;;-144.19;100.00;77996.72;5008257;28;20049;-84
2021/12/12 08:18:55;;;;;;;27.58;16.33;;;;;;;-144.19;100.00;77990.81;5012373;28;20467;-86
2021/12/12 08:21:22;;;;;;;25.95;15.35;;;;;;;-144.19;100.00;78000.66;5012218;28;20041;-87
2021/12/12 08:23:49;;;;;;;26.98;16.20;;;;;;;-144.19;100.00;77990.81;5014290;28;20050;-87
2021/12/12 08:26:17;;;;;;;22.55;14.50;;;;;;;-144.19;100.00;77986.88;5012722;28;20050;-87
2021/12/12 08:28:44;;;;;;;28.10;16.45;;;;;;;-144.19;100.00;77988.84;5014458;28;20061;-88
2021/12/12 08:31:12;;;;;;;24.15;13.32;;;;;;;-144.19;100.00;77988.84;5014826;28;20080;-87
2021/12/12 08:33:40;;;;;;;21.63;10.95;;;;;;;-144.19;100.00;78002.63;5013222;28;20054;-84
2021/12/12 08:36:08;;;;;;;18.15;11.38;;;;;;;-144.19;100.00;78004.59;5013782;28;20054;-85
2021/12/12 08:38:36;;;;;;;19.15;11.57;;;;;;;-144.19;100.00;78006.56;5012761;28;20042;-87
2021/12/12 08:41:05;;;;;;;19.40;12.10;;;;;;;-144.19;100.00;77996.72;5013244;28;20087;-87
2021/12/12 08:43:32;;;;;;;18.50;11.63;;;;;;;-144.19;100.00;78006.56;5013671;28;20056;-88
2021/12/12 08:46:06;;;;;;;22.23;12.77;;;;;;;-144.19;100.00;77994.75;5012654;28;20061;-83
2021/12/12 08:48:39;;;;;;;25.08;15.20;;;;;;;-144.19;100.00;77984.91;5013534;28;20056;-83
2021/12/12 08:51:17;;;;;;;18.05;11.38;;;;;;;-144.19;100.00;77996.72;5012712;28;20050;-87
2021/12/12 08:53:49;;;;;;;25.02;12.90;;;;;;;-144.19;100.00;77984.91;5008622;28;20100;-86
2021/12/12 08:56:30;;;;;;;16.80;11.30;;;;;;;-144.19;100.00;77994.75;5012334;28;20045;-85
2021/12/12 08:58:59;;;;;;;15.32;9.60;;;;;;;-144.19;100.00;77988.84;5008839;28;20045;-87
2021/12/12 09:01:26;;;;;;;18.50;12.43;;;;;;;-144.19;100.00;77973.09;5012232;28;20058;-85
2021/12/12 09:03:55;;;;;;;;;;;;;;;-144.19;100.00;77980.97;5014375;28;20068;-87
2021/12/12 09:06:35;;;;;;;;;;;;;;;-144.19;100.00;77961.28;5014104;28;19928;-83
2021/12/12 09:09:13;;;;;;;19.52;12.55;;;;;;;-144.19;100.00;77975.06;5013811;28;20402;-85
2021/12/12 09:11:52;;;;;;;19.92;12.07;;;;;;;-144.19;100.00;77963.25;5013560;28;20061;-83
2021/12/12 09:14:33;;;;;;;18.67;12.23;;;;;;;-144.19;100.00;77961.28;5012428;28;20061;-86
2021/12/12 09:17:06;;;;;;;19.95;12.80;;;;;;;-144.19;100.00;77969.16;5012733;28;20046;-82
2021/12/12 09:19:42;;;;;;;23.00;14.35;;;;;;;-144.19;100.00;77947.50;5011548;28;20069;-83
2021/12/12 09:22:15;;;;;;;20.17;12.70;;;;;;;-144.19;100.00;77965.22;5009652;28;20056;-83
2021/12/12 09:25:04;;;;;;;20.15;12.70;;;;;;;-144.19;100.00;77959.31;5011211;28;20073;-86
2021/12/12 09:27:40;;;;;;;24.27;15.27;;;;;;;-144.19;100.00;77931.75;5010283;28;20057;-85
2021/12/12 09:30:13;;;;;;;24.77;16.23;;;;;;;-144.19;100.00;77941.59;5010873;28;20048;-85
2021/12/12 09:32:50;;;;;;;21.70;13.50;;;;;;;-144.19;100.00;77937.66;5011191;28;20061;-83
2021/12/12 09:35:29;;;;;;;27.35;17.90;;;;;;;-144.19;100.00;77929.78;5011614;28;20042;-83
2021/12/12 09:38:19;;;;;;;27.27;17.73;;;;;;;-144.19;100.00;77935.69;5006571;28;20500;-85
2021/12/12 09:40:57;;;;;;;23.60;15.48;;;;;;;-144.19;100.00;77937.66;5013280;28;20049;-88
2021/12/12 09:43:50;;;;;;;20.60;13.27;;;;;;;-144.19;100.00;77929.78;5014133;28;20057;-86
2021/12/12 09:46:58;;;;;;;25.27;16.10;;;;;;;-144.19;100.00;77925.84;5010972;28;20037;-84
2021/12/12 09:53:05;;;;;;;30.33;18.23;;;;;;;-144.19;100.00;77906.16;5012546;28;20054;-86
2021/12/12 09:55:52;;;;;;;21.40;14.52;;;;;;;-144.19;100.00;77917.97;5011239;28;20053;-85
2021/12/12 09:58:26;;;;;;;28.17;17.33;;;;;;;-144.19;100.00;77894.34;5010445;28;20049;-83
2021/12/12 10:00:58;;;;;;;28.83;19.65;;;;;;;-144.19;100.00;77892.38;5010705;28;20056;-85
2021/12/12 10:03:37;;;;;;;29.15;18.67;;;;;;;-144.19;100.00;77884.50;5010597;28;20041;-86
2021/12/12 10:06:15;;;;;;;27.73;18.88;;;;;;;-144.19;100.00;77888.44;5009686;28;20052;-84
2021/12/12 10:08:57;;;;;;;31.02;20.23;;;;;;;-144.19;100.00;77870.72;5008268;28;20045;-85
2021/12/12 10:11:37;;;;;;;28.48;19.63;;;;;;;-144.19;100.00;77862.84;5008804;28;20138;-83
2021/12/12 10:14:09;;;;;;;30.88;20.40;;;;;;;-144.19;100.00;77862.84;5008305;28;20072;-84
2021/12/12 10:16:45;;;;;;;28.85;19.60;;;;;;;-144.19;100.00;77860.88;5009654;28;20046;-89
2021/12/12 10:19:39;;;;;;;31.08;20.02;;;;;;;-144.19;100.00;77862.84;5013671;28;20049;-81
2021/12/12 10:22:13;;;;;;;34.28;21.60;;;;;;;-144.19;100.00;77858.91;5011686;28;20042;-87
2021/12/12 10:24:49;;;;;;;30.70;20.90;;;;;;;-144.19;100.00;77856.94;5007778;28;20420;-86
2021/12/12 10:27:30;;;;;;;32.50;21.98;;;;;;;-144.19;100.00;77835.25;5010346;28;20048;-87
2021/12/12 10:30:07;;;;;;;35.10;22.50;;;;;;;-144.19;100.00;77839.19;5010231;28;20049;-85
2021/12/12 10:32:47;;;;;;;38.60;24.00;;;;;;;-144.19;100.00;77833.28;5010755;28;20128;-85
2021/12/12 10:35:20;;;;;;;35.42;23.77;;;;;;;-144.19;100.00;77839.19;5010533;28;20464;-85
2021/12/12 10:37:59;;;;;;;37.83;24.48;;;;;;;-144.19;100.00;77825.41;5011642;28;20042;-86
2021/12/12 10:40:36;;;;;;;32.67;24.05;;;;;;;-144.19;100.00;77817.53;5007627;28;20042;-85
2021/12/12 10:43:08;;;;;;;39.10;26.53;;;;;;;-144.19;100.00;77803.75;5009480;28;20042;-85
2021/12/12 10:45:40;;;;;;;40.85;26.13;;;;;;;-144.19;100.00;77795.88;5009914;28;20046;-84
2021/12/12 10:48:19;;;;;;;34.88;25.42;;;;;;;-144.19;100.00;77784.06;5010612;28;20056;-87
2021/12/12 10:51:00;;;;;;;31.60;23.85;;;;;;;-144.19;100.00;77795.88;5009343;28;20061;-85
2021/12/12 10:53:35;;;;;;;29.35;22.10;;;;;;;-144.19;100.00;77782.09;5008382;28;20073;-87
2021/12/12 10:56:09;;;;;;;31.58;22.20;;;;;;;-144.19;100.00;77782.09;5007839;28;20049;-82
2021/12/12 10:58:43;;;;;;;27.95;20.70;;;;;;;-144.19;100.00;77782.09;5009912;28;20042;-85
2021/12/12 11:01:21;;;;;;;30.90;22.10;;;;;;;-144.19;100.00;77778.16;5011572;28;20664;-87
2021/12/12 11:03:53;;;;;;;31.17;21.83;;;;;;;-144.19;100.00;77770.28;5010383;28;20046;-85
2021/12/12 11:06:27;;;;;;;26.33;20.20;;;;;;;-144.19;100.00;77764.38;5009970;28;20125;-86
2021/12/12 11:08:54;;;;;;;24.55;18.27;;;;;;;-144.19;100.00;77760.44;5008566;28;20049;-86
2021/12/12 11:11:25;;;;;;;25.30;19.40;;;;;;;-144.19;100.00;77764.38;5010155;28;20504;-85
2021/12/12 11:14:07;;;;;;;31.33;21.83;;;;;;;-144.19;100.00;77762.41;5009944;28;20076;-87
2021/12/12 11:16:42;;;;;;;27.10;19.10;;;;;;;-144.19;100.00;77756.50;5016002;28;20053;-85
2021/12/12 11:19:15;;;;;;;25.70;18.80;;;;;;;-144.19;100.00;77758.47;5009393;28;20045;-86
2021/12/12 11:21:46;;;;;;;31.80;22.38;;;;;;;-144.19;100.00;77756.50;5009426;28;20042;-86
2021/12/12 11:24:24;;;;;;;24.20;18.38;;;;;;;-144.19;100.00;77760.44;5007400;28;20056;-88
2021/12/12 11:27:00;;;;;;;24.10;18.15;;;;;;;-144.19;100.00;77758.47;5009845;28;20042;-86
2021/12/12 11:29:32;;;;;;;25.48;17.75;;;;;;;-144.19;100.00;77760.44;5007781;28;20050;-87
2021/12/12 11:32:07;;;;;;;23.42;17.08;;;;;;;-144.19;100.00;77746.66;5009748;28;20058;-86
2021/12/12 11:34:46;;;;;;;22.88;18.02;;;;;;;-144.19;100.00;77748.63;5009834;28;20054;-85
2021/12/12 11:37:19;;;;;;;25.70;18.25;;;;;;;-144.19;100.00;77736.81;5008969;28;20046;-85
2021/12/12 11:39:53;;;;;;;23.40;17.63;;;;;;;-144.19;100.00;77730.91;5010472;28;20054;-85
2021/12/12 11:42:40;;;;;;;23.88;17.65;;;;;;;-144.19;100.00;77721.06;5010294;28;20076;-85
2021/12/12 11:45:27;;;;;;;24.00;16.30;;;;;;;-144.19;100.00;77734.84;5009920;28;20512;-88
2021/12/12 11:48:12;;;;;;;28.77;18.35;;;;;;;-144.19;100.00;77730.91;5008009;28;20053;-83